Time;durP1;ratioP1;P1;durP2;ratioP2;P2;SDS_P1;SDS_P2;PMS_P1;PMS_P2;Temp;Humidity;BMP_temperature;BMP_pressure;BME280_temperature;BME280_humidity;BME280_pressure;Samples;Min_cycle;Max_cycle;Signal;HPM_P1;HPM_P2
2022/04/21 00:00:33;;;;;;;6.57;4.53;;;6.10;99.90;;;;;;5038565;28;20170;-33
2022/04/21 00:02:59;;;;;;;9.23;4.87;;;6.00;99.90;;;;;;5038791;28;20180;-33
2022/04/21 00:05:25;;;;;;;7.17;4.93;;;5.90;99.90;;;;;;5055920;28;20190;-33
2022/04/21 00:07:51;;;;;;;8.50;5.03;;;5.90;99.90;;;;;;5039247;28;20298;-35
2022/04/21 00:10:17;;;;;;;5.67;4.70;;;5.90;99.90;;;;;;5039091;28;20209;-33
2022/04/21 00:12:43;;;;;;;5.63;5.03;;;5.90;99.90;;;;;;5036812;28;20185;-35
2022/04/21 00:15:11;;;;;;;6.83;5.00;;;5.80;99.90;;;;;;5023643;28;20306;-32
2022/04/21 00:17:37;;;;;;;7.13;4.73;;;5.90;99.90;;;;;;5023830;28;20205;-33
2022/04/21 00:20:03;;;;;;;6.73;4.83;;;5.90;99.90;;;;;;5023766;28;20212;-34
2022/04/21 00:25:13;;;;;;;6.23;4.83;;;6.00;99.90;;;;;;5040588;28;20206;-34
2022/04/21 00:27:41;;;;;;;6.43;5.00;;;6.00;99.90;;;;;;5023702;28;20182;-35
2022/04/21 00:30:08;;;;;;;5.57;4.67;;;6.00;99.90;;;;;;5042171;28;20236;-35
2022/04/21 00:32:35;;;;;;;6.20;4.83;;;6.00;99.90;;;;;;5043541;28;20185;-34
2022/04/21 00:35:02;;;;;;;7.27;5.20;;;6.10;99.90;;;;;;5044278;28;20201;-36
2022/04/21 00:37:28;;;;;;;8.03;4.50;;;6.10;99.90;;;;;;5078716;28;20173;-34
2022/04/21 00:39:55;;;;;;;6.77;4.53;;;6.00;99.90;;;;;;5043519;28;20250;-33
2022/04/21 00:42:21;;;;;;;5.60;4.60;;;6.00;99.90;;;;;;5039785;28;20189;-34
2022/04/21 00:44:49;;;;;;;7.17;4.43;;;6.00;99.90;;;;;;5023452;28;20202;-37
2022/04/21 00:47:15;;;;;;;6.77;4.83;;;5.90;99.90;;;;;;5024112;28;20189;-37
2022/04/21 00:49:41;;;;;;;6.73;4.67;;;5.90;99.90;;;;;;5040222;28;20179;-36
2022/04/21 00:52:07;;;;;;;6.03;4.60;;;5.80;99.90;;;;;;5057864;28;20179;-34
2022/04/21 00:54:34;;;;;;;5.80;4.40;;;5.80;99.90;;;;;;5023271;28;20267;-34
2022/04/21 00:57:00;;;;;;;8.20;5.57;;;5.80;99.90;;;;;;5023507;28;20213;-37
2022/04/21 00:59:27;;;;;;;6.23;5.00;;;5.80;99.90;;;;;;5035583;28;20244;-35
2022/04/21 01:04:42;;;;;;;5.90;4.73;;;5.80;99.90;;;;;;5058339;28;20205;-35
2022/04/21 01:07:08;;;;;;;6.57;5.00;;;5.80;99.90;;;;;;5042380;28;20173;-34
2022/04/21 01:09:38;;;;;;;6.20;4.77;;;5.70;99.90;;;;;;5041794;28;20173;-35
2022/04/21 01:12:09;;;;;;;6.77;4.93;;;5.70;99.90;;;;;;5040504;28;20223;-35
2022/04/21 01:14:39;;;;;;;5.33;4.43;;;5.80;99.90;;;;;;5021192;28;20218;-37
2022/04/21 01:17:09;;;;;;;6.53;4.70;;;5.80;99.90;;;;;;5021382;28;20239;-34
2022/04/21 01:19:35;;;;;;;6.20;4.97;;;5.80;99.90;;;;;;5055490;28;20213;-36
2022/04/21 01:22:01;;;;;;;7.13;5.00;;;5.80;99.90;;;;;;5021725;28;20170;-34
2022/04/21 01:24:27;;;;;;;6.67;5.10;;;5.80;99.90;;;;;;5021842;28;20206;-35
2022/04/21 01:27:00;;;;;;;7.83;5.53;;;5.80;99.90;;;;;;5037660;28;20175;-34
2022/04/21 01:29:27;;;;;;;7.23;5.37;;;5.80;99.90;;;;;;5033612;28;20185;-34
2022/04/21 01:31:54;;;;;;;6.13;4.60;;;5.70;99.90;;;;;;5057055;28;20185;-36
2022/04/21 01:34:21;;;;;;;7.27;4.73;;;5.70;99.90;;;;;;5040821;28;20201;-36
2022/04/21 01:42:16;;;;;;;8.50;5.17;;;5.60;99.90;;;;;;5053634;28;20184;-34
2022/04/21 01:44:43;;;;;;;8.80;5.70;;;5.40;99.90;;;;;;5036509;28;20206;-35
2022/04/21 01:47:09;;;;;;;7.87;5.20;;;5.30;99.90;;;;;;5019504;28;20182;-35
2022/04/21 01:49:35;;;;;;;6.07;5.00;;;5.20;99.90;;;;;;5019686;28;20177;-34
2022/04/21 01:52:02;;;;;;;7.40;5.40;;;5.00;99.90;;;;;;5020176;28;20208;-35
2022/04/21 01:54:27;;;;;;;7.13;4.80;;;4.80;99.90;;;;;;5054056;28;20197;-36
2022/04/21 01:56:53;;;;;;;5.77;5.10;;;4.80;99.90;;;;;;5036312;28;20242;-35
2022/04/21 01:59:19;;;;;;;6.43;5.50;;;4.70;99.90;;;;;;5047886;28;20220;-35
2022/04/21 02:01:45;;;;;;;8.40;4.93;;;4.70;99.90;;;;;;5073830;28;20181;-36
2022/04/21 02:04:10;;;;;;;6.97;4.87;;;4.60;99.90;;;;;;5055934;28;20208;-36
2022/04/21 02:06:36;;;;;;;5.87;5.23;;;4.60;99.90;;;;;;5039750;28;20201;-36
2022/04/21 02:09:02;;;;;;;9.20;5.60;;;4.60;99.90;;;;;;5057518;28;20183;-34
2022/04/21 02:11:28;;;;;;;7.30;4.77;;;4.70;99.90;;;;;;5041564;28;20193;-37
2022/04/21 02:13:54;;;;;;;7.27;5.40;;;4.60;99.90;;;;;;5041156;28;20267;-36
2022/04/21 02:16:19;;;;;;;6.73;5.10;;;4.50;99.90;;;;;;5020965;28;20224;-35
2022/04/21 02:18:46;;;;;;;6.30;4.90;;;4.60;99.90;;;;;;5021267;28;20198;-34
2022/04/21 02:21:12;;;;;;;7.10;5.03;;;4.50;99.90;;;;;;5021565;28;20212;-35
2022/04/21 02:23:38;;;;;;;7.93;5.37;;;4.60;99.90;;;;;;5021536;28;20234;-34
2022/04/21 02:26:04;;;;;;;6.13;5.53;;;4.60;99.90;;;;;;5037476;28;20178;-33
2022/04/21 02:28:29;;;;;;;9.30;5.47;;;4.70;99.90;;;;;;5042298;28;20215;-34
2022/04/21 02:30:55;;;;;;;8.63;5.60;;;4.80;99.90;;;;;;5040474;28;20254;-35
2022/04/21 02:33:21;;;;;;;6.93;4.80;;;4.80;99.90;;;;;;5074879;28;20178;-35
2022/04/21 02:35:47;;;;;;;6.83;5.10;;;4.80;99.90;;;;;;5040370;28;20219;-34
2022/04/21 02:38:13;;;;;;;6.07;5.00;;;4.80;99.90;;;;;;5057104;28;20185;-36
2022/04/21 02:40:39;;;;;;;6.40;5.37;;;4.80;99.90;;;;;;5039968;28;20187;-34
2022/04/21 02:43:06;;;;;;;8.67;5.57;;;4.80;99.90;;;;;;5030739;28;20226;-34
2022/04/21 02:45:32;;;;;;;7.33;5.40;;;4.80;99.90;;;;;;5021046;28;20224;-35
2022/04/21 02:47:58;;;;;;;6.30;5.10;;;4.80;99.90;;;;;;5037743;28;20170;-35
2022/04/21 02:50:24;;;;;;;6.13;4.97;;;4.80;99.90;;;;;;5020932;28;20197;-35
2022/04/21 02:52:51;;;;;;;5.83;5.20;;;4.80;99.90;;;;;;5020815;28;20180;-35
2022/04/21 02:58:03;;;;;;;8.03;4.83;;;4.70;99.90;;;;;;5056465;28;20241;-36
2022/04/21 03:00:29;;;;;;;6.17;5.17;;;4.70;99.90;;;;;;5059122;28;20233;-35
2022/04/21 03:02:56;;;;;;;7.63;5.23;;;4.60;99.90;;;;;;5059850;28;20173;-34
2022/04/21 03:05:22;;;;;;;6.10;5.10;;;4.60;99.90;;;;;;5043071;28;20205;-36
2022/04/21 03:07:48;;;;;;;6.07;4.73;;;4.50;99.90;;;;;;5078218;28;20254;-36
2022/04/21 03:10:15;;;;;;;5.97;4.50;;;4.60;99.90;;;;;;5059862;28;20301;-34
2022/04/21 03:12:40;;;;;;;6.77;5.00;;;4.50;99.90;;;;;;5036361;28;20190;-34
2022/04/21 03:15:39;;;;;;;5.83;4.80;;;4.50;99.90;;;;;;5027202;23;20217;-86
2022/04/21 03:18:15;;;;;;;7.27;5.10;;;4.40;99.90;;;;;;5051783;28;20166;-86
2022/04/21 03:26:28;;;;;;;8.87;5.10;;;4.30;99.90;;;;;;5031990;28;20177;-86
2022/04/21 03:28:53;;;;;;;5.63;4.80;;;4.20;99.90;;;;;;5015337;28;20202;-86
2022/04/21 03:31:19;;;;;;;6.20;5.27;;;4.20;99.90;;;;;;5015613;28;20198;-86
2022/04/21 03:33:46;;;;;;;8.13;4.97;;;4.20;99.90;;;;;;4998874;28;20207;-86
2022/04/21 03:36:12;;;;;;;6.00;5.37;;;4.10;99.90;;;;;;5015451;28;20187;-86
2022/04/21 03:38:40;;;;;;;6.27;5.17;;;4.10;99.90;;;;;;5014069;28;20237;-85
2022/04/21 03:41:06;;;;;;;7.37;5.13;;;4.10;99.90;;;;;;5013676;28;20186;-86
2022/04/21 03:43:32;;;;;;;7.20;5.50;;;4.10;99.90;;;;;;5013778;28;20198;-86
2022/04/21 03:45:57;;;;;;;5.57;4.90;;;4.10;99.90;;;;;;5015474;28;20179;-86
2022/04/21 03:48:23;;;;;;;6.13;5.13;;;4.10;99.90;;;;;;5017863;28;20202;-86
2022/04/21 03:50:49;;;;;;;7.40;5.80;;;4.00;99.90;;;;;;5017498;28;20174;-86
2022/04/21 03:53:16;;;;;;;6.27;5.57;;;4.00;99.90;;;;;;5002925;28;20209;-86
2022/04/21 03:55:42;;;;;;;7.43;5.60;;;3.90;99.90;;;;;;5019169;28;20193;-86
2022/04/21 03:58:08;;;;;;;6.70;5.37;;;3.90;99.90;;;;;;5019263;28;20186;-85
2022/04/21 04:00:45;;;;;;;6.80;5.07;;;4.00;99.90;;;;;;5018284;28;20548;-86
2022/04/21 04:03:11;;;;;;;8.10;6.10;;;3.90;99.90;;;;;;5019164;28;20182;-86
2022/04/21 04:05:37;;;;;;;13.53;6.50;;;3.90;99.90;;;;;;5019286;28;20182;-86
2022/04/21 04:10:54;;;;;;;10.00;6.00;;;4.00;99.90;;;;;;5035517;28;20175;-86
2022/04/21 04:13:24;;;;;;;6.80;5.70;;;4.00;99.90;;;;;;5018526;28;20175;-85
2022/04/21 04:15:51;;;;;;;6.93;5.37;;;3.90;99.90;;;;;;5019201;28;20217;-86
2022/04/21 04:18:21;;;;;;;9.27;5.33;;;4.00;99.90;;;;;;5018912;28;20175;-86
2022/04/21 04:20:48;;;;;;;7.20;5.23;;;4.00;99.90;;;;;;5018608;28;20258;-86
2022/04/21 04:23:19;;;;;;;7.60;5.53;;;3.90;99.90;;;;;;5018947;28;20179;-86
2022/04/21 04:25:45;;;;;;;7.30;5.53;;;3.80;99.90;;;;;;5018790;28;20174;-86
2022/04/21 04:28:11;;;;;;;7.80;5.47;;;3.70;99.90;;;;;;5002762;28;20220;-86
2022/04/21 04:30:38;;;;;;;15.67;10.60;;;3.70;99.90;;;;;;5018764;28;20250;-85
2022/04/21 04:33:05;;;;;;;32.57;17.70;;;3.70;99.90;;;;;;5002422;28;20178;-86
2022/04/21 04:35:31;;;;;;;42.43;23.00;;;3.70;99.90;;;;;;5018780;28;20178;-86
2022/04/21 04:38:00;;;;;;;37.13;19.30;;;3.70;99.90;;;;;;5018916;28;20175;-86
2022/04/21 04:40:27;;;;;;;26.90;13.57;;;3.70;99.90;;;;;;5018233;28;20179;-86
2022/04/21 04:42:53;;;;;;;15.67;8.50;;;3.70;99.90;;;;;;5002315;28;20182;-86
2022/04/21 04:48:05;;;;;;;10.10;6.03;;;3.60;99.90;;;;;;5034486;28;20185;-86
2022/04/21 04:50:32;;;;;;;7.57;6.03;;;3.70;99.90;;;;;;5000459;28;20177;-86
2022/04/21 04:52:59;;;;;;;8.47;5.47;;;3.60;99.90;;;;;;5016239;28;20205;-86
2022/04/21 04:55:26;;;;;;;7.70;5.77;;;3.60;99.90;;;;;;5017387;28;20654;-86
2022/04/21 04:57:54;;;;;;;9.00;6.23;;;3.60;99.90;;;;;;5017198;28;20182;-86
2022/04/21 05:00:24;;;;;;;9.63;6.73;;;3.70;99.90;;;;;;5001499;28;20205;-86
2022/04/21 05:02:50;;;;;;;12.00;7.40;;;3.70;99.90;;;;;;5013634;28;20177;-85
2022/04/21 05:05:16;;;;;;;8.87;6.83;;;3.60;99.90;;;;;;5004928;28;20202;-85
2022/04/21 05:08:06;;;;;;;10.13;7.00;;;3.60;99.90;;;;;;5019281;28;20183;-86
2022/04/21 05:10:31;;;;;;;9.70;7.13;;;3.60;99.90;;;;;;5021350;28;20812;-85
2022/04/21 05:12:59;;;;;;;10.33;6.97;;;3.60;99.90;;;;;;5012737;28;20239;-85
2022/04/21 05:15:26;;;;;;;12.23;6.90;;;3.60;99.90;;;;;;5001481;28;20301;-73
2022/04/21 05:22:03;;;;;;;9.70;6.63;;;3.80;99.90;;;;;;5035207;28;20174;-74
2022/04/21 05:24:31;;;;;;;11.37;6.13;;;3.90;99.90;;;;;;5034308;28;20268;-79
2022/04/21 05:27:01;;;;;;;8.80;5.77;;;4.10;99.90;;;;;;5035268;28;20232;-84
2022/04/21 05:32:23;;;;;;;10.40;5.93;;;4.40;99.90;;;;;;5039111;28;20646;-84
2022/04/21 05:34:49;;;;;;;5.73;5.17;;;4.60;99.90;;;;;;5022996;28;20212;-84
2022/04/21 05:37:15;;;;;;;8.93;5.47;;;4.70;99.90;;;;;;5039031;28;20249;-83
2022/04/21 05:39:41;;;;;;;8.30;5.47;;;4.80;99.90;;;;;;5038231;28;20233;-84
2022/04/21 05:42:10;;;;;;;7.93;5.83;;;4.90;99.90;;;;;;5021919;28;20186;-84
2022/04/21 05:44:37;;;;;;;7.87;4.83;;;5.00;99.90;;;;;;5038000;28;20197;-84
2022/04/21 05:47:03;;;;;;;8.13;5.77;;;5.00;99.90;;;;;;5021422;28;20180;-83
2022/04/21 05:49:29;;;;;;;8.23;5.90;;;4.90;99.90;;;;;;5037195;28;20202;-86
2022/04/21 05:51:57;;;;;;;6.97;5.30;;;5.10;99.90;;;;;;5020035;28;20194;-86
2022/04/21 05:54:23;;;;;;;7.50;5.33;;;5.10;99.90;;;;;;5019687;28;20208;-86
2022/04/21 05:56:49;;;;;;;7.63;6.13;;;5.20;99.90;;;;;;5019607;28;20216;-86
2022/04/21 05:59:15;;;;;;;7.47;5.43;;;5.30;99.90;;;;;;5036372;28;20239;-86
2022/04/21 06:01:41;;;;;;;7.27;5.90;;;5.40;99.90;;;;;;5019676;28;20181;-85
2022/04/21 06:04:07;;;;;;;9.90;5.80;;;5.50;99.90;;;;;;5019628;28;20225;-86
2022/04/21 06:06:33;;;;;;;7.13;5.33;;;5.60;99.90;;;;;;5019563;28;20186;-85
2022/04/21 06:09:00;;;;;;;8.13;5.57;;;5.70;99.90;;;;;;5018755;28;20186;-86
2022/04/21 06:11:27;;;;;;;6.90;5.50;;;5.70;99.90;;;;;;5035878;28;20178;-86
2022/04/21 06:13:53;;;;;;;9.17;6.07;;;5.70;99.90;;;;;;5019676;28;20242;-86
2022/04/21 06:16:19;;;;;;;8.50;6.13;;;5.70;99.90;;;;;;5016210;28;20256;-85
2022/04/21 06:18:45;;;;;;;6.50;5.63;;;5.60;99.90;;;;;;5016149;28;20206;-86
2022/04/21 06:21:11;;;;;;;7.23;6.00;;;5.60;99.90;;;;;;5015234;28;20182;-86
2022/04/21 06:24:12;;;;;;;8.47;5.97;;;5.70;99.90;;;;;;5031961;28;20195;-86
2022/04/21 06:26:38;;;;;;;11.33;5.93;;;5.80;99.90;;;;;;5016200;28;20162;-86
2022/04/21 06:29:05;;;;;;;8.23;6.40;;;5.80;99.90;;;;;;5015729;28;20245;-86
2022/04/21 06:31:30;;;;;;;6.57;5.70;;;6.00;99.90;;;;;;5015968;28;20182;-86
2022/04/21 06:33:58;;;;;;;8.73;6.17;;;6.00;99.90;;;;;;5015864;28;20564;-86
2022/04/21 06:36:24;;;;;;;6.97;6.20;;;6.30;99.90;;;;;;5015892;28;20198;-86
2022/04/21 06:38:51;;;;;;;7.73;6.00;;;6.40;99.90;;;;;;5015458;28;20210;-86
2022/04/21 06:41:17;;;;;;;7.63;6.30;;;6.50;99.90;;;;;;5032311;28;20260;-86
2022/04/21 06:49:11;;;;;;;9.37;6.83;;;7.10;99.90;;;;;;5031849;28;20183;-86
2022/04/21 06:51:39;;;;;;;7.20;6.33;;;7.20;99.90;;;;;;5032144;28;20184;-86
2022/04/21 06:54:05;;;;;;;8.40;6.53;;;7.40;99.90;;;;;;5015747;28;20201;-86
2022/04/21 06:56:31;;;;;;;7.60;6.10;;;7.50;99.90;;;;;;5015549;28;20180;-86
2022/04/21 06:58:57;;;;;;;8.23;6.53;;;7.70;99.90;;;;;;5031872;28;20208;-86
2022/04/21 07:01:23;;;;;;;9.27;7.10;;;7.80;99.90;;;;;;5015288;28;20217;-86
2022/04/21 07:03:49;;;;;;;11.27;6.80;;;7.90;99.90;;;;;;5015228;28;20243;-86
2022/04/21 07:06:15;;;;;;;13.27;7.27;;;8.00;99.90;;;;;;5015290;28;20187;-86
2022/04/21 07:08:41;;;;;;;7.77;6.83;;;7.90;99.90;;;;;;5015604;28;20186;-86
2022/04/21 07:11:07;;;;;;;7.63;6.93;;;7.90;99.90;;;;;;5015600;28;20215;-85
2022/04/21 07:13:33;;;;;;;7.97;7.17;;;8.20;99.90;;;;;;5015323;28;20236;-86
2022/04/21 07:15:59;;;;;;;10.67;7.97;;;8.40;99.90;;;;;;5015127;28;20250;-86
2022/04/21 07:18:25;;;;;;;10.97;7.87;;;8.60;99.90;;;;;;5015312;28;20185;-86
2022/04/21 07:20:50;;;;;;;11.97;8.03;;;8.80;99.90;;;;;;5015101;28;20268;-86
2022/04/21 07:23:16;;;;;;;8.97;7.57;;;8.90;99.90;;;;;;4998703;28;20202;-86
2022/04/21 07:25:42;;;;;;;9.07;7.77;;;9.10;99.90;;;;;;5031957;28;20212;-86
2022/04/21 07:28:08;;;;;;;9.13;7.73;;;9.30;99.90;;;;;;5015088;28;20186;-86
2022/04/21 07:30:34;;;;;;;8.37;7.47;;;9.20;99.90;;;;;;5014802;28;20236;-86
2022/04/21 07:33:01;;;;;;;9.97;8.47;;;9.40;99.90;;;;;;5015249;28;20182;-86
2022/04/21 07:35:29;;;;;;;11.20;7.90;;;9.20;99.90;;;;;;5014864;28;20241;-86
2022/04/21 07:37:55;;;;;;;8.83;7.93;;;9.30;99.90;;;;;;5014823;28;20255;-86
2022/04/21 07:40:23;;;;;;;7.87;6.93;;;9.60;99.90;;;;;;5014483;28;20297;-86
2022/04/21 07:43:08;;;;;;;11.00;7.63;;;9.70;99.90;;;;;;5014798;28;20178;-86
2022/04/21 07:45:41;;;;;;;9.83;7.57;;;9.90;99.90;;;;;;5015165;28;20182;-86
2022/04/21 07:48:07;;;;;;;10.30;7.70;;;10.10;99.90;;;;;;5015084;28;20185;-86
2022/04/21 07:50:34;;;;;;;10.40;7.93;;;10.30;99.90;;;;;;5014688;28;20269;-86
2022/04/21 07:53:15;;;;;;;10.50;8.80;;;10.50;99.90;;;;;;5014789;28;20234;-86
2022/04/21 07:55:44;;;;;;;10.20;8.10;;;10.70;99.90;;;;;;5014800;28;20543;-86
2022/04/21 07:58:10;;;;;;;10.47;7.90;;;10.90;99.90;;;;;;5014702;28;20187;-86
2022/04/21 08:01:13;;;;;;;11.63;7.70;;;11.20;99.90;;;;;;5014102;28;20178;-86
2022/04/21 08:03:41;;;;;;;13.03;8.37;;;11.30;99.90;;;;;;5014519;28;20254;-86
2022/04/21 08:06:07;;;;;;;8.60;7.70;;;11.40;99.90;;;;;;5014795;28;20197;-86
2022/04/21 08:08:34;;;;;;;8.50;7.70;;;11.60;99.90;;;;;;5015178;28;20277;-86
2022/04/21 08:11:00;;;;;;;8.80;7.50;;;11.70;99.90;;;;;;5032199;28;20243;-86
2022/04/21 08:13:28;;;;;;;8.50;7.60;;;11.80;99.90;;;;;;4998398;28;20291;-86
2022/04/21 08:15:54;;;;;;;9.00;8.10;;;11.90;99.90;;;;;;5014386;28;20194;-86
2022/04/21 08:18:20;;;;;;;9.10;7.73;;;12.10;99.90;;;;;;5014437;28;20187;-87
2022/04/21 08:20:48;;;;;;;9.90;7.97;;;12.30;99.90;;;;;;5014531;28;20180;-86
2022/04/21 08:23:14;;;;;;;11.37;8.23;;;12.50;99.90;;;;;;5013334;28;20202;-86
2022/04/21 08:33:53;;;;;;;9.30;8.03;;;13.10;99.90;;;;;;5034654;28;20253;-86
2022/04/21 08:36:18;;;;;;;9.67;7.80;;;13.20;99.90;;;;;;5034642;28;20181;-86
2022/04/21 08:38:44;;;;;;;12.47;8.10;;;13.50;99.90;;;;;;5018112;28;20207;-86
2022/04/21 08:41:17;;;;;;;9.07;8.17;;;13.70;99.90;;;;;;5018458;28;20178;-87
2022/04/21 08:43:46;;;;;;;9.53;7.50;;;14.00;99.30;;;;;;5018339;28;20212;-86
2022/04/21 08:46:20;;;;;;;7.80;7.00;;;14.30;99.10;;;;;;5018516;28;20178;-87
2022/04/21 08:48:50;;;;;;;8.50;7.60;;;14.50;99.20;;;;;;5033172;28;20178;-86
2022/04/21 08:51:16;;;;;;;9.90;7.00;;;14.70;98.00;;;;;;5017455;28;20255;-86
2022/04/21 08:53:43;;;;;;;10.33;6.57;;;14.70;96.70;;;;;;5017532;28;20207;-86
2022/04/21 08:56:10;;;;;;;9.20;8.20;;;14.90;97.30;;;;;;5018020;28;20236;-86
2022/04/21 08:58:36;;;;;;;7.73;6.93;;;15.10;96.10;;;;;;5017631;28;20228;-87
2022/04/21 09:01:02;;;;;;;8.67;7.23;;;14.80;95.80;;;;;;5017356;28;20170;-87
2022/04/21 09:03:28;;;;;;;9.23;7.50;;;14.80;95.70;;;;;;5017276;28;20249;-87
2022/04/21 09:05:53;;;;;;;7.47;6.40;;;14.90;96.40;;;;;;5035143;28;20167;-85
2022/04/21 09:08:21;;;;;;;8.57;7.53;;;15.20;95.90;;;;;;5001181;28;20183;-84
2022/04/21 09:11:05;;;;;;;8.10;7.30;;;15.30;95.00;;;;;;5017295;28;20216;-85
2022/04/21 09:13:34;;;;;;;7.47;6.70;;;15.30;94.10;;;;;;5033716;28;20290;-85
2022/04/21 09:16:05;;;;;;;8.03;7.27;;;15.40;94.60;;;;;;5017472;28;20635;-84
2022/04/21 09:18:47;;;;;;;8.80;7.57;;;15.50;94.60;;;;;;5033882;28;20210;-84
2022/04/21 09:21:17;;;;;;;11.10;7.23;;;15.70;93.90;;;;;;5000932;28;20182;-84
2022/04/21 09:23:44;;;;;;;9.43;7.60;;;15.80;93.40;;;;;;5016995;28;20209;-85
2022/04/21 09:26:15;;;;;;;7.43;6.73;;;15.80;93.90;;;;;;5016921;28;20193;-85
2022/04/21 09:28:41;;;;;;;8.73;7.60;;;15.90;93.60;;;;;;5017301;28;20182;-85
2022/04/21 09:31:10;;;;;;;9.37;7.00;;;15.80;92.10;;;;;;5017517;28;20232;-84
2022/04/21 09:33:44;;;;;;;8.23;7.37;;;15.70;93.00;;;;;;5016878;28;20202;-85
2022/04/21 09:36:10;;;;;;;9.90;7.17;;;15.90;92.50;;;;;;5033678;28;20248;-85
2022/04/21 09:38:37;;;;;;;8.93;7.40;;;15.40;90.70;;;;;;5016752;28;20218;-84
2022/04/21 09:41:13;;;;;;;9.50;7.43;;;15.40;92.90;;;;;;5016873;28;20253;-84
2022/04/21 09:43:41;;;;;;;7.73;6.67;;;15.60;92.70;;;;;;5016556;28;20226;-85
2022/04/21 09:46:19;;;;;;;8.20;7.33;;;15.70;91.70;;;;;;5033540;28;20193;-85
2022/04/21 09:48:46;;;;;;;10.03;6.67;;;15.70;90.30;;;;;;5016696;28;20174;-85
2022/04/21 09:51:14;;;;;;;8.30;7.40;;;15.60;91.60;;;;;;5016605;28;20186;-85
2022/04/21 09:53:53;;;;;;;8.50;6.77;;;15.70;91.70;;;;;;5016253;28;20207;-84
2022/04/21 09:56:37;;;;;;;8.00;7.20;;;15.90;93.20;;;;;;5016646;28;20445;-85
2022/04/21 09:59:07;;;;;;;7.67;6.87;;;16.10;92.90;;;;;;5016515;28;20202;-85
2022/04/21 10:01:36;;;;;;;9.73;7.27;;;16.40;92.60;;;;;;5016865;28;20181;-85
2022/04/21 10:04:06;;;;;;;7.50;6.80;;;16.60;92.30;;;;;;5016294;28;20209;-86
2022/04/21 10:06:33;;;;;;;8.30;7.30;;;16.70;91.50;;;;;;5016345;28;20269;-85
2022/04/21 10:08:59;;;;;;;9.47;7.20;;;16.80;92.50;;;;;;5016102;28;20187;-86
2022/04/21 10:11:25;;;;;;;9.40;6.30;;;16.80;92.00;;;;;;5016342;28;20647;-86
2022/04/21 10:13:56;;;;;;;7.35;6.63;;;17.00;91.10;;;;;;5016080;28;20210;-86
2022/04/21 10:16:24;;;;;;;7.00;6.30;;;17.20;91.50;;;;;;5016393;28;20173;-86
2022/04/21 10:18:53;;;;;;;9.32;7.10;;;17.30;91.00;;;;;;5015914;28;20214;-85
2022/04/21 10:21:34;;;;;;;6.57;5.97;;;17.40;90.20;;;;;;5016609;28;20179;-86
2022/04/21 10:24:00;;;;;;;7.65;6.90;;;17.50;90.30;;;;;;5015666;28;20285;-85
2022/04/21 10:26:39;;;;;;;8.40;7.03;;;17.50;91.00;;;;;;5015957;28;20228;-86
2022/04/21 10:29:23;;;;;;;7.37;6.67;;;17.00;91.00;;;;;;4999803;28;20205;-85
2022/04/21 10:32:05;;;;;;;7.88;7.18;;;17.10;90.70;;;;;;5016279;28;20171;-86
2022/04/21 10:34:37;;;;;;;7.25;6.63;;;17.10;92.30;;;;;;5016399;28;20268;-86
2022/04/21 10:37:20;;;;;;;7.32;6.63;;;17.20;91.50;;;;;;5015866;28;20578;-86
2022/04/21 10:40:15;;;;;;;9.90;7.60;;;17.40;91.50;;;;;;5015468;28;20260;-86
2022/04/21 10:42:55;;;;;;;8.40;6.33;;;17.30;91.20;;;;;;4999559;28;20191;-86
2022/04/21 10:45:26;;;;;;;9.05;6.85;;;17.60;91.80;;;;;;5015686;28;20256;-85
2022/04/21 10:48:08;;;;;;;8.43;7.53;;;17.80;91.20;;;;;;5015708;28;20174;-86
2022/04/21 10:50:39;;;;;;;7.38;6.65;;;17.90;91.40;;;;;;5015457;28;20183;-86
2022/04/21 11:00:03;;;;;;;7.57;5.63;;;18.00;89.70;;;;;;5033084;28;20305;-86
2022/04/21 11:03:00;;;;;;;7.97;6.57;;;18.20;90.70;;;;;;4998939;28;20185;-85
2022/04/21 11:05:30;;;;;;;7.13;5.95;;;17.90;89.60;;;;;;4998967;28;20554;-86
2022/04/21 11:07:58;;;;;;;6.25;5.65;;;18.10;89.10;;;;;;5014994;28;20179;-85
2022/04/21 11:10:39;;;;;;;6.88;6.10;;;17.70;90.10;;;;;;5015087;28;20196;-86
2022/04/21 11:13:06;;;;;;;7.60;6.80;;;18.10;90.90;;;;;;4998576;28;20197;-85
2022/04/21 11:15:49;;;;;;;7.05;6.38;;;18.40;91.50;;;;;;5031539;28;20186;-86
2022/04/21 11:18:15;;;;;;;6.85;5.53;;;18.50;90.40;;;;;;5015511;28;20189;-86
2022/04/21 11:20:43;;;;;;;7.97;6.57;;;18.60;88.90;;;;;;4998547;28;20207;-85
2022/04/21 11:23:31;;;;;;;6.30;5.80;;;18.60;89.00;;;;;;5014938;28;20182;-86
2022/04/21 11:26:05;;;;;;;5.65;5.07;;;18.30;87.90;;;;;;4998698;28;20253;-86
2022/04/21 11:28:32;;;;;;;7.78;6.10;;;18.30;90.30;;;;;;5020367;28;20186;-86
2022/04/21 11:31:00;;;;;;;8.13;5.97;;;18.10;92.20;;;;;;5034736;28;20174;-86
2022/04/21 11:33:26;;;;;;;6.63;5.82;;;18.30;91.00;;;;;;5018183;28;20229;-86
2022/04/21 11:36:05;;;;;;;6.35;5.75;;;18.20;89.60;;;;;;5018363;28;20185;-86
2022/04/21 11:38:33;;;;;;;6.35;5.82;;;18.20;90.80;;;;;;5034758;28;20178;-86
2022/04/21 11:41:04;;;;;;;5.93;5.32;;;18.60;90.90;;;;;;5018143;28;20206;-86
2022/04/21 11:43:30;;;;;;;6.45;5.53;;;18.50;91.10;;;;;;5018158;28;20220;-86
2022/04/21 11:45:57;;;;;;;5.70;5.15;;;18.80;91.30;;;;;;5018289;28;20182;-86
2022/04/21 11:48:28;;;;;;;6.78;6.03;;;18.70;90.30;;;;;;5018246;28;20209;-86
2022/04/21 11:50:54;;;;;;;6.28;4.95;;;18.60;88.50;;;;;;5029142;28;20190;-85
2022/04/21 11:53:20;;;;;;;7.22;6.53;;;18.80;90.60;;;;;;5029854;28;20193;-85
2022/04/21 11:55:48;;;;;;;6.20;5.68;;;19.10;91.30;;;;;;5018473;28;20197;-86
2022/04/21 11:58:26;;;;;;;5.90;5.30;;;19.40;90.40;;;;;;5014894;28;20221;-86
2022/04/21 12:06:41;;;;;;;6.20;5.70;;;20.00;89.70;;;;;;5014380;28;20181;-86
2022/04/21 12:09:20;;;;;;;5.32;4.82;;;20.10;87.70;;;;;;5001754;28;20186;-86
2022/04/21 12:11:54;;;;;;;6.30;5.80;;;20.20;88.50;;;;;;5001999;28;20240;-86
2022/04/21 12:14:21;;;;;;;6.53;5.00;;;20.20;86.50;;;;;;5001629;28;20236;-86
2022/04/21 12:16:58;;;;;;;5.88;4.95;;;20.40;89.20;;;;;;5017121;28;20187;-86
2022/04/21 12:19:37;;;;;;;5.63;5.15;;;20.60;89.20;;;;;;5034864;28;20281;-86
2022/04/21 12:22:13;;;;;;;6.05;5.50;;;20.70;86.30;;;;;;5001957;28;20175;-86
2022/04/21 12:24:43;;;;;;;5.75;5.25;;;20.90;88.70;;;;;;5034740;28;20202;-86
2022/04/21 12:27:15;;;;;;;5.78;5.18;;;20.90;87.30;;;;;;5002139;28;20171;-86
2022/04/21 12:30:01;;;;;;;5.53;5.03;;;20.90;86.40;;;;;;5017873;28;20269;-86
2022/04/21 12:32:29;;;;;;;7.10;5.57;;;21.00;85.60;;;;;;5001588;28;20686;-86
2022/04/21 12:34:58;;;;;;;5.28;4.78;;;21.00;87.20;;;;;;5018184;28;20229;-86
2022/04/21 12:37:50;;;;;;;6.40;5.22;;;21.30;86.40;;;;;;5018054;28;20175;-85
2022/04/21 12:40:16;;;;;;;5.25;4.80;;;20.80;83.90;;;;;;5017674;28;20214;-86
2022/04/21 12:42:42;;;;;;;6.20;5.60;;;21.10;87.10;;;;;;5018017;28;20179;-86
2022/04/21 12:45:09;;;;;;;6.10;4.78;;;21.00;85.90;;;;;;5018204;28;20201;-86
2022/04/21 12:47:48;;;;;;;5.05;4.65;;;20.70;87.30;;;;;;5017842;28;20206;-86
2022/04/21 12:50:30;;;;;;;5.00;4.60;;;20.70;87.10;;;;;;5017280;28;20214;-86
2022/04/21 12:52:57;;;;;;;4.57;4.18;;;20.70;85.70;;;;;;5017648;28;20677;-86
2022/04/21 12:55:27;;;;;;;6.20;5.47;;;20.60;86.10;;;;;;5017554;28;20210;-86
2022/04/21 12:57:59;;;;;;;5.40;4.90;;;20.80;87.00;;;;;;5017677;28;20261;-86
2022/04/21 13:00:25;;;;;;;5.15;4.65;;;21.20;86.90;;;;;;5001344;28;20300;-86
2022/04/21 13:02:51;;;;;;;5.05;4.65;;;21.30;88.60;;;;;;5001510;28;20209;-86
2022/04/21 13:05:17;;;;;;;5.35;4.70;;;21.00;87.90;;;;;;5017483;28;20202;-86
2022/04/21 13:07:43;;;;;;;5.38;4.50;;;21.30;87.50;;;;;;5017469;28;20182;-85
2022/04/21 13:10:09;;;;;;;4.80;4.20;;;21.60;87.00;;;;;;5017073;28;20270;-86
2022/04/21 13:12:35;;;;;;;5.20;4.80;;;21.70;87.30;;;;;;5017363;28;20233;-86
2022/04/21 13:15:04;;;;;;;5.20;4.50;;;21.90;86.00;;;;;;5017158;28;20238;-86
2022/04/21 13:17:31;;;;;;;4.57;4.13;;;21.80;84.40;;;;;;5016746;28;20648;-86
2022/04/21 13:19:57;;;;;;;5.07;3.85;;;21.60;84.70;;;;;;5016166;28;20623;-86
2022/04/21 13:22:23;;;;;;;6.55;4.10;;;21.70;86.60;;;;;;5015751;28;20183;-86
2022/04/21 13:24:49;;;;;;;4.70;4.30;;;21.60;84.50;;;;;;5016901;28;20245;-86
2022/04/21 13:27:16;;;;;;;5.20;4.45;;;21.30;85.70;;;;;;5016865;28;20221;-86
2022/04/21 13:29:43;;;;;;;6.25;5.65;;;21.30;86.90;;;;;;5017126;28;20183;-86
2022/04/21 13:34:53;;;;;;;5.05;4.65;;;20.80;86.80;;;;;;5033358;28;20211;-86
2022/04/21 13:37:19;;;;;;;6.03;5.53;;;20.60;85.90;;;;;;5017093;28;20182;-86
2022/04/21 13:39:45;;;;;;;4.88;4.47;;;20.30;86.40;;;;;;5016489;28;20706;-86
2022/04/21 13:42:11;;;;;;;5.43;4.97;;;20.30;87.10;;;;;;5016984;28;20182;-86
2022/04/21 13:44:37;;;;;;;5.10;4.70;;;20.60;87.40;;;;;;5016708;28;20220;-86
2022/04/21 13:47:05;;;;;;;4.85;4.45;;;20.90;88.30;;;;;;5017119;28;20186;-86
2022/04/21 13:49:32;;;;;;;7.25;4.32;;;21.20;86.40;;;;;;5016507;28;20183;-86
2022/04/21 13:51:59;;;;;;;4.93;4.43;;;21.40;86.40;;;;;;5016312;28;20190;-86
2022/04/21 13:54:50;;;;;;;4.53;4.13;;;21.60;85.30;;;;;;5016454;28;20688;-86
2022/04/21 13:57:15;;;;;;;4.07;3.67;;;21.20;86.30;;;;;;5016564;28;20309;-86
2022/04/21 13:59:52;;;;;;;4.22;3.80;;;21.60;86.20;;;;;;5015203;28;20297;-86